createdAt,value
2022-10-20T00:00:32.519Z,7.79
2022-10-20T00:06:07.199Z,7.79
2022-10-20T00:11:13.984Z,7.78
2022-10-20T00:16:18.936Z,7.82
2022-10-20T00:21:27.571Z,7.85
2022-10-20T00:26:32.875Z,7.85
2022-10-20T00:31:36.242Z,7.85
2022-10-20T00:36:40.888Z,7.87
2022-10-20T00:41:44.097Z,7.87
2022-10-20T00:46:47.751Z,7.91
2022-10-20T00:51:55.105Z,7.99
2022-10-20T00:56:59.983Z,8.02
2022-10-20T01:02:08.697Z,8.04
2022-10-20T01:07:12.265Z,7.95
2022-10-20T01:12:41.241Z,7.92
2022-10-20T01:18:03.596Z,7.92
2022-10-20T01:23:18.890Z,7.99
2022-10-20T01:28:47.700Z,7.95
2022-10-20T01:34:02.413Z,7.86
2022-10-20T01:39:25.322Z,7.80
2022-10-20T01:44:31.195Z,7.79
2022-10-20T01:49:34.825Z,7.79
2022-10-20T01:54:38.264Z,7.81
2022-10-20T02:00:09.724Z,7.86
2022-10-20T02:05:47.835Z,7.87
2022-10-20T02:10:57.751Z,7.91
2022-10-20T02:16:07.889Z,7.98
2022-10-20T02:21:12.301Z,7.93
2022-10-20T02:26:20.663Z,7.83
2022-10-20T02:31:25.402Z,7.82
2022-10-20T02:36:30.292Z,7.85
2022-10-20T02:41:34.175Z,7.84
2022-10-20T02:46:37.487Z,7.81
2022-10-20T02:51:40.900Z,7.75
2022-10-20T02:56:44.215Z,7.68
2022-10-20T03:01:48.218Z,7.63
2022-10-20T03:06:51.669Z,7.66
2022-10-20T03:11:55.164Z,7.67
2022-10-20T03:16:58.482Z,7.65
2022-10-20T03:22:02.016Z,7.61
2022-10-20T03:27:05.514Z,7.57
2022-10-20T03:32:08.736Z,7.50
2022-10-20T03:37:12.052Z,7.48
2022-10-20T03:42:16.103Z,7.46
2022-10-20T03:47:19.374Z,7.41
2022-10-20T03:52:22.789Z,7.32
2022-10-20T03:57:26.101Z,7.22
2022-10-20T04:02:43.457Z,7.11
2022-10-20T04:07:47.586Z,7.05
2022-10-20T04:12:50.850Z,6.99
2022-10-20T04:17:54.403Z,6.94
2022-10-20T04:22:57.673Z,6.94
2022-10-20T04:28:01.126Z,6.91
2022-10-20T04:33:04.848Z,6.87
2022-10-20T04:38:09.316Z,6.92
2022-10-20T04:43:12.700Z,6.95
2022-10-20T04:48:17.061Z,6.95
2022-10-20T04:53:20.350Z,6.98
2022-10-20T04:58:25.352Z,6.99
2022-10-20T05:03:28.711Z,7.07
2022-10-20T05:08:32.039Z,7.06
2022-10-20T05:13:35.953Z,7.00
2022-10-20T05:18:40.794Z,7.06
2022-10-20T05:23:45.411Z,7.19
2022-10-20T05:28:51.102Z,7.18
2022-10-20T05:33:57.284Z,7.20
2022-10-20T05:39:00.698Z,7.17
2022-10-20T05:44:08.736Z,7.21
2022-10-20T05:54:39.001Z,7.26
2022-10-20T05:59:42.510Z,7.30
2022-10-20T06:04:47.754Z,7.39
2022-10-20T06:09:52.131Z,7.45
2022-10-20T06:14:55.421Z,7.38
2022-10-20T06:19:58.682Z,7.47
2022-10-20T06:25:02.043Z,7.59
2022-10-20T06:30:06.851Z,7.57
2022-10-20T06:35:10.078Z,7.57
2022-10-20T06:40:13.966Z,7.60
2022-10-20T06:45:17.882Z,7.62
2022-10-20T06:50:21.364Z,7.68
2022-10-20T06:55:24.630Z,7.80
2022-10-20T07:00:28.076Z,7.81
2022-10-20T07:05:31.603Z,7.87
2022-10-20T07:10:34.913Z,7.86
2022-10-20T07:15:38.156Z,7.93
2022-10-20T07:20:41.427Z,8.07
2022-10-20T07:25:44.906Z,8.11
2022-10-20T07:30:48.880Z,8.09
2022-10-20T07:35:52.265Z,8.08
2022-10-20T07:41:03.260Z,8.09
2022-10-20T07:46:07.811Z,8.12
2022-10-20T07:51:31.200Z,8.13
2022-10-20T07:56:41.993Z,8.15
2022-10-20T08:01:45.378Z,8.16
2022-10-20T08:06:48.757Z,8.21
2022-10-20T08:11:55.328Z,8.27
2022-10-20T08:17:01.147Z,8.34
2022-10-20T08:22:04.490Z,8.44
2022-10-20T08:27:07.798Z,8.43
2022-10-20T08:32:13.169Z,8.56
2022-10-20T08:37:16.486Z,8.86
2022-10-20T08:42:19.989Z,9.02
2022-10-20T08:47:37.581Z,9.12
2022-10-20T08:52:43.293Z,9.28
2022-10-20T08:57:49.689Z,9.36
2022-10-20T09:02:56.579Z,9.49
2022-10-20T09:07:59.997Z,9.78
2022-10-20T09:13:30.441Z,10.01
2022-10-20T09:18:35.201Z,10.03
2022-10-20T09:29:14.705Z,10.17
2022-10-20T09:34:26.363Z,10.20
2022-10-20T09:39:39.650Z,10.22
2022-10-20T09:44:56.872Z,10.20
2022-10-20T09:50:08.995Z,10.29
2022-10-20T09:55:35.241Z,10.25
2022-10-20T10:00:47.206Z,10.56
2022-10-20T10:06:00.909Z,10.56
2022-10-20T10:11:18.862Z,10.51
2022-10-20T10:16:24.801Z,10.55
2022-10-20T10:21:41.979Z,10.65
2022-10-20T10:26:45.794Z,10.75
2022-10-20T10:32:01.096Z,10.72
2022-10-20T10:37:04.819Z,10.72
2022-10-20T10:42:46.021Z,10.69
2022-10-20T10:48:44.005Z,10.71
2022-10-20T10:54:33.600Z,10.79
2022-10-20T10:59:43.162Z,10.85
2022-10-20T11:04:58.204Z,10.82
2022-10-20T11:10:10.982Z,10.86
2022-10-20T11:15:33.240Z,10.94
2022-10-20T11:20:55.284Z,11.00
2022-10-20T11:26:29.254Z,11.22
2022-10-20T11:31:55.567Z,11.44
2022-10-20T11:37:13.324Z,11.68
2022-10-20T11:42:31.940Z,11.67
2022-10-20T11:47:41.907Z,11.62
2022-10-20T11:53:28.278Z,11.65
2022-10-20T11:58:43.740Z,11.70
2022-10-20T12:04:05.729Z,11.59
2022-10-20T12:09:48.121Z,11.49
2022-10-20T12:15:01.196Z,11.62
2022-10-20T12:20:22.976Z,11.87
2022-10-20T12:25:26.456Z,12.02
2022-10-20T12:30:38.888Z,12.02
2022-10-20T12:36:14.331Z,12.11
2022-10-20T12:41:35.184Z,12.16
2022-10-20T12:46:51.997Z,12.25
2022-10-20T12:51:59.150Z,12.22
2022-10-20T12:57:26.686Z,12.12
2022-10-20T13:02:33.151Z,12.06
2022-10-20T13:07:48.767Z,12.03
2022-10-20T13:12:54.841Z,11.91
2022-10-20T13:18:14.029Z,11.88
2022-10-20T13:23:23.994Z,11.87
2022-10-20T13:28:32.840Z,11.79
2022-10-20T13:34:03.330Z,11.69
2022-10-20T13:39:52.543Z,11.63
2022-10-20T13:45:25.687Z,11.52
2022-10-20T13:50:40.880Z,11.44
2022-10-20T13:56:08.586Z,11.36
2022-10-20T14:01:23.536Z,11.33
2022-10-20T14:06:36.783Z,11.28
2022-10-20T14:11:41.906Z,11.26
2022-10-20T14:16:56.205Z,11.23
2022-10-20T14:22:23.786Z,11.16
2022-10-20T14:27:31.714Z,11.09
2022-10-20T14:32:40.897Z,10.98
2022-10-20T14:37:52.770Z,10.88
2022-10-20T14:43:15.445Z,10.74
2022-10-20T14:48:18.950Z,10.59
2022-10-20T14:53:33.623Z,10.49
2022-10-20T14:58:57.007Z,10.38
2022-10-20T15:04:24.785Z,10.26
2022-10-20T15:09:35.073Z,10.13
2022-10-20T15:14:39.712Z,10.00
2022-10-20T15:19:43.282Z,9.85
2022-10-20T15:24:50.194Z,9.71
2022-10-20T15:29:53.684Z,9.53
2022-10-20T15:34:57.126Z,9.38
2022-10-20T15:40:00.703Z,9.23
2022-10-20T15:45:21.816Z,9.05
2022-10-20T15:50:25.703Z,8.89
2022-10-20T15:55:33.729Z,8.75
2022-10-20T16:00:38.368Z,8.62
2022-10-20T16:05:41.899Z,8.48
2022-10-20T16:10:45.545Z,8.40
2022-10-20T16:15:49.096Z,8.41
2022-10-20T16:20:52.675Z,8.41
2022-10-20T16:25:56.181Z,8.36
2022-10-20T16:31:06.325Z,8.27
2022-10-20T16:36:13.957Z,8.13
2022-10-20T16:41:18.607Z,8.00
2022-10-20T16:46:23.247Z,7.87
2022-10-20T16:51:26.801Z,7.75
2022-10-20T16:56:30.777Z,7.64
2022-10-20T17:01:34.412Z,7.53
2022-10-20T17:06:38.259Z,7.42
2022-10-20T17:11:41.789Z,7.28
2022-10-20T17:16:47.623Z,7.14
2022-10-20T17:21:55.808Z,7.01
2022-10-20T17:26:59.653Z,7.03
2022-10-20T17:32:03.297Z,7.02
2022-10-20T17:37:06.810Z,6.95
2022-10-20T17:42:10.468Z,6.81
2022-10-20T17:47:14.148Z,6.72
2022-10-20T17:52:17.783Z,6.56
2022-10-20T17:57:21.238Z,6.40
2022-10-20T18:02:24.799Z,6.29
2022-10-20T18:07:28.448Z,6.19
2022-10-20T18:12:32.038Z,6.10
2022-10-20T18:17:36.329Z,6.03
2022-10-20T18:22:40.065Z,6.03
2022-10-20T18:27:43.646Z,6.11
2022-10-20T18:32:47.253Z,6.05
2022-10-20T18:37:56.381Z,6.00
2022-10-20T18:43:02.874Z,5.89
2022-10-20T18:48:06.685Z,5.76
2022-10-20T18:53:10.333Z,5.62
2022-10-20T18:58:14.023Z,5.55
2022-10-20T19:03:17.614Z,5.45
2022-10-20T19:08:21.271Z,5.35
2022-10-20T19:13:26.892Z,5.41
2022-10-20T19:18:30.674Z,5.46
2022-10-20T19:23:39.901Z,5.44
2022-10-20T19:28:50.082Z,5.37
2022-10-20T19:34:00.455Z,5.23
2022-10-20T19:39:08.279Z,5.16
2022-10-20T19:44:12.881Z,5.08
2022-10-20T19:49:16.421Z,4.98
2022-10-20T19:54:20.067Z,4.92
2022-10-20T19:59:23.640Z,4.84
2022-10-20T20:04:27.199Z,4.79
2022-10-20T20:09:31.473Z,4.80
2022-10-20T20:14:34.980Z,4.90
2022-10-20T20:19:38.695Z,4.92
2022-10-20T20:24:42.622Z,4.87
2022-10-20T20:29:46.106Z,4.82
2022-10-20T20:34:49.616Z,4.82
2022-10-20T20:39:53.240Z,4.77
2022-10-20T20:44:56.845Z,4.67
2022-10-20T20:50:01.082Z,4.57
2022-10-20T20:55:05.777Z,4.51
2022-10-20T21:00:10.652Z,4.54
2022-10-20T21:05:14.320Z,4.58
2022-10-20T21:10:18.191Z,4.60
2022-10-20T21:15:22.195Z,4.64
2022-10-20T21:20:26.099Z,4.64
2022-10-20T21:25:29.583Z,4.63
2022-10-20T21:30:33.127Z,4.58
2022-10-20T21:35:36.617Z,4.55
2022-10-20T21:40:40.080Z,4.58
2022-10-20T21:45:43.505Z,4.68
2022-10-20T21:50:47.061Z,4.77
2022-10-20T21:55:50.472Z,4.72
2022-10-20T22:00:55.013Z,4.56
2022-10-20T22:05:58.566Z,4.48
2022-10-20T22:11:13.005Z,4.47
2022-10-20T22:16:20.929Z,4.53
2022-10-20T22:21:25.319Z,4.54
